createdAt,value
2023-04-19T00:00:46.984Z,75.14
2023-04-19T00:03:15.710Z,75.62
2023-04-19T00:05:44.223Z,75.65
2023-04-19T00:08:12.716Z,74.04
2023-04-19T00:10:41.144Z,74.00
2023-04-19T00:13:09.526Z,73.93
2023-04-19T00:15:39.238Z,75.58
2023-04-19T00:18:08.362Z,73.25
2023-04-19T00:20:37.276Z,74.13
2023-04-19T00:23:05.707Z,74.58
2023-04-19T00:25:35.540Z,73.16
2023-04-19T00:28:04.819Z,75.28
2023-04-19T00:30:33.264Z,72.47
2023-04-19T00:33:03.141Z,73.18
2023-04-19T00:35:31.570Z,71.40
2023-04-19T00:37:59.948Z,71.71
2023-04-19T00:40:28.753Z,72.18
2023-04-19T00:42:57.124Z,72.62
2023-04-19T00:45:26.646Z,72.41
2023-04-19T00:47:55.598Z,70.94
2023-04-19T00:50:24.464Z,69.90
2023-04-19T00:52:55.211Z,70.23
2023-04-19T00:55:25.079Z,70.71
2023-04-19T00:57:53.454Z,67.98
2023-04-19T01:00:21.924Z,68.31
2023-04-19T01:02:50.349Z,68.41
2023-04-19T01:05:19.135Z,68.84
2023-04-19T01:07:47.495Z,68.57
2023-04-19T01:10:16.529Z,68.50
2023-04-19T01:12:45.210Z,69.26
2023-04-19T01:15:13.630Z,69.74
2023-04-19T01:17:43.254Z,69.34
2023-04-19T01:20:12.585Z,67.78
2023-04-19T01:22:41.221Z,67.91
2023-04-19T01:25:09.935Z,67.74
2023-04-19T01:27:38.326Z,66.88
2023-04-19T01:30:07.375Z,67.00
2023-04-19T01:32:35.811Z,67.63
2023-04-19T01:35:04.503Z,66.11
2023-04-19T01:37:36.145Z,66.18
2023-04-19T01:40:08.085Z,65.27
2023-04-19T01:42:36.540Z,64.33
2023-04-19T01:45:05.342Z,64.88
2023-04-19T01:47:33.723Z,63.34
2023-04-19T01:50:02.150Z,63.37
2023-04-19T01:52:30.515Z,63.25
2023-04-19T01:54:58.867Z,62.92
2023-04-19T01:57:27.246Z,62.49
2023-04-19T01:59:55.868Z,63.21
2023-04-19T02:02:24.461Z,61.04
2023-04-19T02:04:53.081Z,61.53
2023-04-19T02:07:21.588Z,62.68
2023-04-19T02:09:49.921Z,62.00
2023-04-19T02:12:18.295Z,61.66
2023-04-19T02:14:46.679Z,61.79
2023-04-19T02:17:14.994Z,60.74
2023-04-19T02:19:43.385Z,60.86
2023-04-19T02:22:11.963Z,59.70
2023-04-19T02:24:40.338Z,59.92
2023-04-19T02:27:08.725Z,61.22
2023-04-19T02:29:37.157Z,60.62
2023-04-19T02:32:07.195Z,60.11
2023-04-19T02:34:36.151Z,59.41
2023-04-19T02:37:04.592Z,60.23
2023-04-19T02:39:33.220Z,60.60
2023-04-19T02:42:02.348Z,59.07
2023-04-19T02:44:30.730Z,59.17
2023-04-19T02:46:59.091Z,59.94
2023-04-19T02:49:27.475Z,59.27
2023-04-19T02:51:55.787Z,57.82
2023-04-19T02:54:24.142Z,58.96
2023-04-19T02:56:52.477Z,57.35
2023-04-19T02:59:20.875Z,57.90
2023-04-19T03:01:49.228Z,58.65
2023-04-19T03:04:18.310Z,57.96
2023-04-19T03:06:46.918Z,57.79
2023-04-19T03:09:15.255Z,58.32
2023-04-19T03:11:43.963Z,57.98
2023-04-19T03:14:12.325Z,56.16
2023-04-19T03:16:40.720Z,56.69
2023-04-19T03:19:09.226Z,55.81
2023-04-19T03:21:37.584Z,54.56
2023-04-19T03:24:06.241Z,57.05
2023-04-19T03:26:34.640Z,55.94
2023-04-19T03:29:03.162Z,57.54
2023-04-19T03:31:31.804Z,57.99
2023-04-19T03:34:00.170Z,54.30
2023-04-19T03:36:28.548Z,53.77
2023-04-19T03:38:56.916Z,55.55
2023-04-19T03:41:27.578Z,55.30
2023-04-19T03:43:56.157Z,53.01
2023-04-19T03:46:24.642Z,55.78
2023-04-19T03:48:54.150Z,53.78
2023-04-19T03:51:22.481Z,52.34
2023-04-19T03:53:50.823Z,53.03
2023-04-19T03:56:19.223Z,54.98
2023-04-19T03:58:47.936Z,54.73
2023-04-19T04:01:20.879Z,56.43
2023-04-19T04:03:50.123Z,55.22
2023-04-19T04:06:18.792Z,54.40
2023-04-19T04:08:47.257Z,53.46
2023-04-19T04:11:15.734Z,54.23
2023-04-19T04:13:44.209Z,53.72
2023-04-19T04:16:12.599Z,50.59
2023-04-19T04:18:41.035Z,53.98
2023-04-19T04:21:09.468Z,54.82
2023-04-19T04:23:38.864Z,54.05
2023-04-19T04:26:10.792Z,53.52
2023-04-19T04:28:39.192Z,52.44
2023-04-19T04:31:07.647Z,51.95
2023-04-19T04:33:36.023Z,52.26
2023-04-19T04:36:04.649Z,49.50
2023-04-19T04:38:33.173Z,52.57
2023-04-19T04:41:01.508Z,53.73
2023-04-19T04:43:30.782Z,53.33
2023-04-19T04:45:59.374Z,50.48
2023-04-19T04:48:27.849Z,51.24
2023-04-19T04:50:56.302Z,47.47
2023-04-19T04:53:28.110Z,50.86
2023-04-19T04:55:56.548Z,51.00
2023-04-19T04:58:24.926Z,51.69
2023-04-19T05:00:53.437Z,50.58
2023-04-19T05:03:21.946Z,50.80
2023-04-19T05:05:50.448Z,50.60
2023-04-19T05:08:18.791Z,49.64
2023-04-19T05:10:47.163Z,49.98
2023-04-19T05:13:15.546Z,48.13
2023-04-19T05:15:43.930Z,48.98
2023-04-19T05:18:12.297Z,48.02
2023-04-19T05:20:40.662Z,49.78
2023-04-19T05:23:09.157Z,45.48
2023-04-19T05:25:37.624Z,49.06
2023-04-19T05:28:06.653Z,45.66
2023-04-19T05:30:35.064Z,44.59
2023-04-19T05:33:07.216Z,47.68
2023-04-19T05:35:35.614Z,48.49
2023-04-19T05:38:04.423Z,43.46
2023-04-19T05:40:33.166Z,46.85
2023-04-19T05:43:01.508Z,45.85
2023-04-19T05:45:29.972Z,45.78
2023-04-19T05:47:58.373Z,47.86
2023-04-19T05:50:26.833Z,48.25
2023-04-19T05:52:55.211Z,45.98
2023-04-19T05:55:23.592Z,47.52
2023-04-19T05:57:52.257Z,47.54
2023-04-19T06:00:20.827Z,46.87
2023-04-19T06:02:49.621Z,46.24
2023-04-19T06:05:18.207Z,48.15
2023-04-19T06:07:54.499Z,44.51
2023-04-19T06:10:36.749Z,42.81
2023-04-19T06:13:16.592Z,48.00
2023-04-19T06:15:45.023Z,45.92
2023-04-19T06:18:19.332Z,46.85
2023-04-19T06:20:48.798Z,44.79
2023-04-19T06:23:19.220Z,47.25
2023-04-19T06:25:51.391Z,45.15
2023-04-19T06:28:20.539Z,47.51
2023-04-19T06:30:49.741Z,47.37
2023-04-19T06:33:18.312Z,46.53
2023-04-19T06:35:46.940Z,47.17
2023-04-19T06:38:15.572Z,46.07
2023-04-19T06:40:44.307Z,46.29
2023-04-19T06:43:13.005Z,47.40
2023-04-19T06:45:41.664Z,45.64
2023-04-19T06:48:10.504Z,47.36
2023-04-19T06:50:39.200Z,48.77
2023-04-19T06:53:07.855Z,46.22
2023-04-19T06:55:36.563Z,44.85
2023-04-19T06:58:05.397Z,45.17
2023-04-19T07:00:34.110Z,46.35
2023-04-19T07:03:02.985Z,46.43
2023-04-19T07:05:33.101Z,46.92
2023-04-19T07:08:01.885Z,47.04
2023-04-19T07:10:30.793Z,46.09
2023-04-19T07:12:59.418Z,47.56
2023-04-19T07:15:28.332Z,49.70
2023-04-19T07:17:57.044Z,48.45
2023-04-19T07:20:25.921Z,47.60
2023-04-19T07:22:54.603Z,48.63
2023-04-19T07:25:23.682Z,46.78
2023-04-19T07:27:55.619Z,50.83
2023-04-19T07:30:24.931Z,47.20
2023-04-19T07:32:54.737Z,46.69
2023-04-19T07:35:24.118Z,51.14
2023-04-19T07:37:52.820Z,52.66
2023-04-19T07:40:21.643Z,47.99
2023-04-19T07:42:50.393Z,47.58
2023-04-19T07:45:19.204Z,49.75
2023-04-19T07:47:47.901Z,49.21
2023-04-19T07:50:17.176Z,50.70
2023-04-19T07:52:45.937Z,48.31
2023-04-19T07:55:14.679Z,49.48
2023-04-19T07:57:47.279Z,49.63
2023-04-19T08:00:20.041Z,51.62
2023-04-19T08:02:50.065Z,47.03
2023-04-19T08:05:19.615Z,51.61
2023-04-19T08:07:48.387Z,50.32
2023-04-19T08:10:17.418Z,50.05
2023-04-19T08:12:57.372Z,48.50
2023-04-19T08:18:06.305Z,49.90
2023-04-19T08:20:35.585Z,48.86
2023-04-19T08:23:18.121Z,47.52
2023-04-19T08:25:50.125Z,49.33
2023-04-19T08:28:19.732Z,49.36
2023-04-19T08:30:48.452Z,48.47
2023-04-19T08:33:17.563Z,49.90
2023-04-19T08:35:47.074Z,48.13
2023-04-19T08:38:15.811Z,49.82
2023-04-19T08:40:56.318Z,47.63
2023-04-19T08:43:29.796Z,47.13
2023-04-19T08:46:00.091Z,49.06
2023-04-19T08:48:29.778Z,48.35
2023-04-19T08:51:05.553Z,47.51
2023-04-19T08:53:38.414Z,51.21
2023-04-19T08:56:18.006Z,49.44
2023-04-19T09:04:01.127Z,50.28
2023-04-19T09:06:38.790Z,52.24
2023-04-19T09:09:33.956Z,48.52
2023-04-19T09:12:20.995Z,50.15
2023-04-19T09:15:01.176Z,50.14
2023-04-19T09:17:31.605Z,48.88
2023-04-19T09:20:00.695Z,47.78
2023-04-19T09:22:29.456Z,48.60
2023-04-19T09:27:35.393Z,49.04
2023-04-19T09:30:06.217Z,47.48
2023-04-19T09:33:01.272Z,49.88
2023-04-19T09:35:50.577Z,48.86
2023-04-19T09:38:19.366Z,48.14
2023-04-19T09:40:48.747Z,47.13
2023-04-19T09:43:57.525Z,50.04
2023-04-19T09:46:53.609Z,47.41
2023-04-19T09:49:37.598Z,47.42
2023-04-19T09:52:16.479Z,49.63
2023-04-19T09:54:47.192Z,47.64
2023-04-19T09:57:17.069Z,47.47
2023-04-19T09:59:45.748Z,46.06
2023-04-19T10:02:16.294Z,44.00
2023-04-19T10:07:30.263Z,45.14
2023-04-19T10:10:16.043Z,44.74
2023-04-19T10:15:24.931Z,43.86
2023-04-19T10:17:54.155Z,45.60
2023-04-19T10:20:28.575Z,45.32
2023-04-19T10:22:57.710Z,44.32
2023-04-19T10:25:32.967Z,45.59
2023-04-19T10:28:01.730Z,49.01
2023-04-19T10:30:30.599Z,46.25
2023-04-19T10:33:05.046Z,48.34
2023-04-19T10:35:39.754Z,47.41
2023-04-19T10:38:13.806Z,45.92
2023-04-19T10:40:57.609Z,48.75
2023-04-19T10:43:30.875Z,48.77
2023-04-19T10:46:04.351Z,48.16
2023-04-19T10:48:39.757Z,48.54
2023-04-19T10:51:16.843Z,53.10
2023-04-19T10:53:48.157Z,53.54
2023-04-19T10:56:37.982Z,53.01
2023-04-19T10:59:09.226Z,51.00
2023-04-19T11:01:47.670Z,50.46
2023-04-19T11:04:21.765Z,49.81
2023-04-19T11:06:53.849Z,49.57
2023-04-19T11:09:32.479Z,49.51
2023-04-19T11:12:03.327Z,48.89
2023-04-19T11:14:34.200Z,49.13
2023-04-19T11:17:15.958Z,50.38
2023-04-19T11:19:55.725Z,49.74
2023-04-19T11:22:41.673Z,50.50
2023-04-19T11:25:22.944Z,51.67
2023-04-19T11:27:54.170Z,52.70
2023-04-19T11:30:30.801Z,52.50
2023-04-19T11:33:00.218Z,51.41
2023-04-19T11:35:31.690Z,51.57
2023-04-19T11:38:01.608Z,51.50
2023-04-19T11:40:30.376Z,52.77
2023-04-19T11:43:04.286Z,52.63
2023-04-19T11:45:39.763Z,53.31
2023-04-19T11:48:19.087Z,51.59
2023-04-19T11:50:50.595Z,51.23
2023-04-19T11:53:22.618Z,50.79
2023-04-19T11:55:53.751Z,51.57
2023-04-19T11:58:38.242Z,52.27
2023-04-19T12:01:15.344Z,54.55
2023-04-19T12:04:02.675Z,55.43
2023-04-19T12:06:33.163Z,56.08
2023-04-19T12:09:02.048Z,55.73
2023-04-19T12:11:50.100Z,56.17
2023-04-19T12:14:22.524Z,56.14
2023-04-19T12:17:12.019Z,55.62
2023-04-19T12:19:47.161Z,57.57
2023-04-19T12:22:20.747Z,58.66
2023-04-19T12:24:52.513Z,57.47
2023-04-19T12:27:21.714Z,56.64
2023-04-19T12:29:50.626Z,56.03
2023-04-19T12:32:19.287Z,54.70
2023-04-19T12:34:48.435Z,56.06
2023-04-19T12:37:17.118Z,56.90
2023-04-19T12:39:45.748Z,57.05
2023-04-19T12:42:14.458Z,56.26
2023-04-19T12:44:43.147Z,56.34
2023-04-19T12:47:11.797Z,57.85
2023-04-19T12:49:40.457Z,57.54
2023-04-19T12:52:09.700Z,56.77
2023-04-19T12:54:38.363Z,57.61
2023-04-19T12:57:07.035Z,56.39
2023-04-19T12:59:35.718Z,57.50
2023-04-19T13:02:04.733Z,58.42
2023-04-19T13:04:33.549Z,57.56
2023-04-19T13:07:02.473Z,56.86
2023-04-19T13:09:31.659Z,57.76
2023-04-19T13:12:00.673Z,59.17
2023-04-19T13:14:30.144Z,60.07
2023-04-19T13:16:58.982Z,60.01
2023-04-19T13:19:28.434Z,59.42
2023-04-19T13:21:57.081Z,59.39
2023-04-19T13:24:25.944Z,60.01
2023-04-19T13:26:54.779Z,58.82
2023-04-19T13:29:23.872Z,59.19
2023-04-19T13:31:52.772Z,59.91
2023-04-19T13:34:22.198Z,60.42
2023-04-19T13:36:51.269Z,59.83
2023-04-19T13:39:20.128Z,59.06
2023-04-19T13:41:48.943Z,59.90
2023-04-19T13:44:18.194Z,59.01
2023-04-19T13:46:47.306Z,58.79
2023-04-19T13:49:15.979Z,58.48
2023-04-19T13:51:50.230Z,57.59
2023-04-19T13:54:21.002Z,57.63
2023-04-19T13:56:52.150Z,56.53
2023-04-19T13:59:22.807Z,56.39
2023-04-19T14:01:51.867Z,54.05
2023-04-19T14:04:21.503Z,53.53
2023-04-19T14:06:50.891Z,54.08
2023-04-19T14:09:19.652Z,53.86
2023-04-19T14:11:49.894Z,53.77
2023-04-19T14:14:19.016Z,53.28
2023-04-19T14:16:47.936Z,54.46
2023-04-19T14:19:16.736Z,53.98
2023-04-19T14:21:45.446Z,53.74
2023-04-19T14:24:14.470Z,53.52
2023-04-19T14:26:43.489Z,53.40
2023-04-19T14:29:12.685Z,53.50
2023-04-19T14:31:41.445Z,54.28
2023-04-19T14:34:10.284Z,54.07
2023-04-19T14:36:38.904Z,53.89
2023-04-19T14:39:07.994Z,54.13
2023-04-19T14:41:36.846Z,53.28
2023-04-19T14:44:05.517Z,52.95
2023-04-19T14:46:34.265Z,53.63
2023-04-19T14:49:08.951Z,53.98
2023-04-19T14:51:37.939Z,53.49
2023-04-19T14:54:06.779Z,53.80
2023-04-19T14:56:35.573Z,53.75
2023-04-19T14:59:04.508Z,53.93
2023-04-19T15:01:34.216Z,54.47
2023-04-19T15:04:03.312Z,55.18
2023-04-19T15:06:32.919Z,55.73
2023-04-19T15:09:01.695Z,55.89
2023-04-19T15:11:30.581Z,56.22
2023-04-19T15:13:59.275Z,56.82
2023-04-19T15:16:28.082Z,57.34
2023-04-19T15:18:56.972Z,59.01
2023-04-19T15:21:25.688Z,58.86
2023-04-19T15:23:54.485Z,58.77
2023-04-19T15:26:24.818Z,59.11
2023-04-19T15:28:53.465Z,59.57
2023-04-19T15:31:22.295Z,58.85
2023-04-19T15:33:51.325Z,58.63
2023-04-19T15:36:20.149Z,58.25
2023-04-19T15:38:48.979Z,58.37
2023-04-19T15:41:18.865Z,59.17
2023-04-19T15:43:47.616Z,58.41
2023-04-19T15:46:17.024Z,57.37
2023-04-19T15:48:47.899Z,59.44
2023-04-19T15:51:17.109Z,59.41
2023-04-19T15:53:46.554Z,59.78
2023-04-19T15:56:15.333Z,59.60
2023-04-19T15:58:44.258Z,59.57
2023-04-19T16:01:14.931Z,57.94
2023-04-19T16:03:46.166Z,59.09
2023-04-19T16:06:14.996Z,58.67
2023-04-19T16:08:43.779Z,57.95
2023-04-19T16:11:12.490Z,58.88
2023-04-19T16:13:41.153Z,59.42
2023-04-19T16:16:09.863Z,59.16
2023-04-19T16:18:38.545Z,59.20
2023-04-19T16:21:07.599Z,58.84
2023-04-19T16:23:36.303Z,59.05
2023-04-19T16:26:05.112Z,59.73
2023-04-19T16:28:33.720Z,59.59
2023-04-19T16:31:02.311Z,59.61
2023-04-19T16:33:31.077Z,59.12
2023-04-19T16:35:59.748Z,60.56
2023-04-19T16:38:28.461Z,59.67
2023-04-19T16:40:57.258Z,59.77
2023-04-19T16:43:25.941Z,60.32
2023-04-19T16:45:54.568Z,60.20
2023-04-19T16:48:23.452Z,60.10
2023-04-19T16:50:52.938Z,61.01
2023-04-19T16:53:22.117Z,60.11
2023-04-19T16:55:50.823Z,59.94
2023-04-19T16:58:19.403Z,60.17
2023-04-19T17:00:49.407Z,59.55
2023-04-19T17:03:18.174Z,60.19
2023-04-19T17:05:47.080Z,60.10
2023-04-19T17:08:15.933Z,59.24
2023-04-19T17:10:44.631Z,59.60
2023-04-19T17:13:13.399Z,58.97
2023-04-19T17:15:42.204Z,60.14
2023-04-19T17:18:11.086Z,60.17
2023-04-19T17:20:40.086Z,59.69
2023-04-19T17:23:08.791Z,59.94
2023-04-19T17:25:37.524Z,60.09
2023-04-19T17:28:06.962Z,59.17
2023-04-19T17:30:35.837Z,60.62
2023-04-19T17:33:04.549Z,60.21
2023-04-19T17:35:33.293Z,60.15
2023-04-19T17:38:02.076Z,60.50
2023-04-19T17:40:30.879Z,59.04
2023-04-19T17:42:59.739Z,58.46
2023-04-19T17:45:28.412Z,59.31
2023-04-19T17:47:57.244Z,58.76
2023-04-19T17:50:27.549Z,59.48
2023-04-19T17:52:56.931Z,58.73
2023-04-19T17:55:26.792Z,58.66
2023-04-19T17:57:55.448Z,59.19
2023-04-19T18:00:24.433Z,58.87
2023-04-19T18:02:53.564Z,58.74
2023-04-19T18:05:22.588Z,58.16
2023-04-19T18:07:51.450Z,59.49
2023-04-19T18:10:20.121Z,58.71
2023-04-19T18:12:48.827Z,58.80
2023-04-19T18:15:17.647Z,59.75
2023-04-19T18:17:46.364Z,60.50
2023-04-19T18:20:15.270Z,59.68
2023-04-19T18:22:44.103Z,59.36
2023-04-19T18:25:12.763Z,60.23
2023-04-19T18:27:41.446Z,60.55
2023-04-19T18:30:10.447Z,59.22
2023-04-19T18:32:39.434Z,59.63
2023-04-19T18:35:12.382Z,59.68
2023-04-19T18:37:41.299Z,59.82
2023-04-19T18:40:10.435Z,60.24
2023-04-19T18:42:39.126Z,59.33
2023-04-19T18:45:08.677Z,61.22
2023-04-19T18:47:37.376Z,61.53
2023-04-19T18:50:07.631Z,61.14
2023-04-19T18:52:40.069Z,60.70
2023-04-19T18:55:09.620Z,61.51
2023-04-19T18:57:39.868Z,60.96
2023-04-19T19:00:12.310Z,61.09
2023-04-19T19:02:41.639Z,60.20
2023-04-19T19:05:13.716Z,59.37
2023-04-19T19:07:43.343Z,60.99
2023-04-19T19:10:18.487Z,60.41
2023-04-19T19:12:50.217Z,60.56
2023-04-19T19:15:19.289Z,60.10
2023-04-19T19:17:49.730Z,59.97
2023-04-19T19:20:20.243Z,61.13
2023-04-19T19:22:49.242Z,59.91
2023-04-19T19:25:18.156Z,59.62
2023-04-19T19:28:06.177Z,60.18
2023-04-19T19:30:40.742Z,60.16
2023-04-19T19:33:09.688Z,60.84
2023-04-19T19:35:39.735Z,60.86
2023-04-19T19:38:08.918Z,61.03
2023-04-19T19:40:53.535Z,61.13
2023-04-19T19:43:26.218Z,61.38
2023-04-19T19:45:54.875Z,60.82
2023-04-19T19:48:25.213Z,60.82
2023-04-19T19:51:24.653Z,60.41
2023-04-19T19:53:43.120Z,61.01
2023-04-19T19:56:18.978Z,60.66
2023-04-19T19:58:51.903Z,61.20
2023-04-19T20:01:22.531Z,60.95
2023-04-19T20:03:52.299Z,60.97
2023-04-19T20:08:52.802Z,61.29
2023-04-19T20:11:21.772Z,61.33
2023-04-19T20:13:51.197Z,61.25
2023-04-19T20:16:20.815Z,62.14
2023-04-19T20:18:53.666Z,61.35
2023-04-19T20:21:22.581Z,61.96
2023-04-19T20:23:51.844Z,63.00
2023-04-19T20:26:20.627Z,62.48
2023-04-19T20:28:50.333Z,62.99
2023-04-19T20:31:19.196Z,63.54
2023-04-19T20:33:48.096Z,63.29
2023-04-19T20:36:17.527Z,62.94
2023-04-19T20:38:46.842Z,62.98
2023-04-19T20:41:15.270Z,62.76
2023-04-19T20:43:43.733Z,63.47
2023-04-19T20:46:12.611Z,64.18
2023-04-19T20:48:41.024Z,65.06
2023-04-19T20:51:09.438Z,64.12
2023-04-19T20:53:37.772Z,63.29
2023-04-19T20:56:06.692Z,64.41
2023-04-19T20:58:35.517Z,64.70
2023-04-19T21:01:03.886Z,63.84
2023-04-19T21:03:32.522Z,64.53
2023-04-19T21:06:01.265Z,63.48
2023-04-19T21:08:29.721Z,64.95
2023-04-19T21:10:58.104Z,63.68
2023-04-19T21:13:26.525Z,64.62
2023-04-19T21:15:54.977Z,63.78
2023-04-19T21:18:23.343Z,64.49
2023-04-19T21:20:51.650Z,65.46
2023-04-19T21:23:20.070Z,64.49
2023-04-19T21:25:48.486Z,65.11
2023-04-19T21:28:17.024Z,64.30
2023-04-19T21:30:45.448Z,64.54
2023-04-19T21:33:14.064Z,65.42
2023-04-19T21:35:42.436Z,64.56
2023-04-19T21:38:10.812Z,64.41
2023-04-19T21:40:39.171Z,64.47
2023-04-19T21:43:07.500Z,66.59
2023-04-19T21:45:35.853Z,67.48
2023-04-19T21:48:04.347Z,68.20
2023-04-19T21:50:32.733Z,65.78
2023-04-19T21:53:01.077Z,65.12
2023-04-19T21:55:29.511Z,66.12
2023-04-19T21:57:57.900Z,65.74
2023-04-19T22:00:26.378Z,66.50
2023-04-19T22:02:55.303Z,67.24
2023-04-19T22:05:23.752Z,66.63
2023-04-19T22:07:52.243Z,68.27
2023-04-19T22:10:21.106Z,68.03
2023-04-19T22:12:57.768Z,68.91
2023-04-19T22:15:28.837Z,67.08
2023-04-19T22:18:00.328Z,67.47
2023-04-19T22:20:28.723Z,68.11
2023-04-19T22:22:57.332Z,67.71
2023-04-19T22:25:25.779Z,68.58
2023-04-19T22:27:54.323Z,69.07
2023-04-19T22:30:22.769Z,69.21
2023-04-19T22:32:51.276Z,67.97
2023-04-19T22:35:22.573Z,67.85
2023-04-19T22:37:51.474Z,67.08
2023-04-19T22:40:19.867Z,67.50
2023-04-19T22:42:48.292Z,67.70
2023-04-19T22:45:16.804Z,69.44
2023-04-19T22:47:45.279Z,70.11
2023-04-19T22:50:13.740Z,70.90
2023-04-19T22:52:42.671Z,68.25
2023-04-19T22:55:11.817Z,67.72
2023-04-19T22:57:40.365Z,69.75
2023-04-19T23:00:11.569Z,67.88
2023-04-19T23:02:40.193Z,68.01
2023-04-19T23:05:09.185Z,69.80
2023-04-19T23:07:37.703Z,69.35
2023-04-19T23:10:06.615Z,71.12
2023-04-19T23:12:35.412Z,70.56
2023-04-19T23:15:04.829Z,68.17
2023-04-19T23:17:34.106Z,68.27
2023-04-19T23:20:02.544Z,67.63
2023-04-19T23:22:30.899Z,69.09
2023-04-19T23:24:59.350Z,68.30
2023-04-19T23:27:27.951Z,68.72
2023-04-19T23:29:56.505Z,69.20
2023-04-19T23:32:24.933Z,69.31
2023-04-19T23:34:53.373Z,68.25
2023-04-19T23:37:22.017Z,69.45
2023-04-19T23:39:50.333Z,69.00
2023-04-19T23:42:18.874Z,68.94
2023-04-19T23:44:47.208Z,68.23
2023-04-19T23:47:15.988Z,68.91
2023-04-19T23:49:44.346Z,68.19
2023-04-19T23:52:13.513Z,69.02
2023-04-19T23:54:42.034Z,67.95
2023-04-19T23:57:10.406Z,67.97
2023-04-19T23:59:38.743Z,69.10
